Pagina principale
METAR-TAF:

METAR-TAF

Aeroporti :

Aeroporto di Portorose

Portorose, Slovenia

latitudine: 45-31N, longitudine: 013-34E, altezza: 95 m

Osservazione

Il bollettino è stato emesso 44 minuti fa, alle 09:00 UTC
Vento calmo
Temperature 17°C
Umidità 94%
Pressione 1019 hPa
Visibilità 10 km o più
Nubi sparse ad un'altezza di 5000 ft
Nuvoloso ad un'altezza di 8000 ft
pioggia debole

METAR: LJPZ 170900Z 00000KT 9999 -RA SCT050 BKN080 17/16 Q1019

Ora: 11:44 (09:44 UTC)

Previsione

Il bollettino è stato emesso 1 ora e 44 minuti fa, alle 08:00 UTC
Previsione valida dal 17 alle 09 UTC al 17 alle 18 UTC
Vento 5 kt da est/sud-est
Visibilità 10 km o più
Nuvoloso ad un'altezza di 7500 ft
Probabilità 40% :
Temporaneamente
dal 17 alle 09 UTC al 17 alle 18 UTC
Vento 5 kt da est/nord-est
Nuvoloso ad un'altezza di 5000 ft
Cielo coperto ad un'altezza di 8000 ft
pioggia debole

TAF: LJPZ 170800Z 1709/1718 12005KT 9999 BKN075 PROB40 TEMPO 1709/1718 06005KT -RA BKN050 OVC080

Osservazioni e previsioni meteorologiche di più di 4000 aeroporti (messaggi METAR e TAF).

Le stazioni disponibili sono rappresentate dai dischi gialli e rossi sulla carta.

Puntare il mouse per vedere il nome della stazione.

Clicca sopra per visualizzare le osservazioni e previsioni meteorologiche.

Per cambiare la mappa : fare clic sui pulsanti verdi con una croce nera per ingrandire, il pulsante verde con un trattino per diminuire, o sulla freccia verde per le mappe adiacenti.


METAR-TAF: